Данни от 19.01.2021 г. 14:04:00

Температура вътрешна: 18.5 °C
Температура външна: 4.0 °C
Атмосферно налягане: 1005.7 hPa
Атмосферно налягане на морско равнище: 1023.7 hPa
Влажност: 43.1 %



История от последните 24 часа

Дата и часTin [°C]P [hPa]Psl [hPa]H [%]Tout [°C]
   19.01.2021 г. 14:00:01      18.5      1005.7      1023.7      42.6      3.3   
   19.01.2021 г. 13:30:01      18.5      1006.0      1023.9      43.2      4.4   
   19.01.2021 г. 13:00:00      18.5      1006.2      1024.1      43.2      3.3   
   19.01.2021 г. 12:30:01      18.6      1006.5      1024.5      42.9      3.9   
   19.01.2021 г. 12:00:00      18.6      1006.8      1024.7      42.5      3.4   
   19.01.2021 г. 11:30:01      18.5      1007.1      1025.1      42.3      3.4   
   19.01.2021 г. 11:00:01      18.6      1007.4      1025.4      43.3      2.3   
   19.01.2021 г. 10:30:01      18.6      1007.2      1025.2      41.9      1.1   
   19.01.2021 г. 10:00:01      18.5      1006.8      1024.8      42.6      0.5   
   19.01.2021 г. 09:30:01      18.6      1006.7      1024.7      42.9      -1.4   
   19.01.2021 г. 09:00:01      18.6      1006.5      1024.5      42.7      -2.1   
   19.01.2021 г. 08:30:01      18.7      1006.4      1024.4      42.6      -2.3   
   19.01.2021 г. 08:00:01      18.8      1006.3      1024.3      43.8      -2.3   
   19.01.2021 г. 07:30:01      18.9      1006.3      1024.2      44.4      -2.4   
   19.01.2021 г. 07:00:01      18.8      1006.3      1024.2      45.7      -2.4   
   19.01.2021 г. 06:30:00      19.2      1006.1      1024.1      46.9      -2.4   
   19.01.2021 г. 06:00:01      19.6      1006.0      1024.0      48.5      -2.8   
   19.01.2021 г. 05:30:00      19.7      1005.9      1023.8      48.2      -2.9   
   19.01.2021 г. 05:00:01      19.8      1006.0      1024.0      48.4      -2.9   
   19.01.2021 г. 04:30:00      19.8      1005.9      1023.9      48.0      -3.1   
   19.01.2021 г. 04:00:01      19.9      1006.2      1024.2      48.0      -3.4   
   19.01.2021 г. 03:30:00      20.0      1006.4      1024.3      47.9      -3.4   
   19.01.2021 г. 03:00:01      20.1      1006.5      1024.5      47.6      -3.6   
   19.01.2021 г. 02:30:00      20.2      1006.5      1024.5      47.1      -3.8   
   19.01.2021 г. 02:00:01      20.3      1006.5      1024.5      48.1      -3.6   
   19.01.2021 г. 01:30:00      20.4      1006.4      1024.4      48.7      -3.4   
   19.01.2021 г. 01:00:01      20.4      1006.2      1024.2      47.5      -2.9   
   19.01.2021 г. 00:30:00      20.5      1006.2      1024.2      47.0      -2.1   
   19.01.2021 г. 00:00:01      20.6      1006.2      1024.1      46.7      -2.0   
   18.01.2021 г. 23:30:00      20.7      1006.1      1024.0      46.2      -2.3   
   18.01.2021 г. 23:00:01      20.7      1005.8      1023.8      46.3      -1.9   
   18.01.2021 г. 22:30:01      20.7      1005.8      1023.7      46.0      -2.5   
   18.01.2021 г. 22:00:01      20.8      1005.7      1023.7      45.8      -2.3   
   18.01.2021 г. 21:30:01      20.8      1005.5      1023.4      45.7      -2.3   
   18.01.2021 г. 21:00:01      20.8      1005.3      1023.3      45.8      -1.5   
   18.01.2021 г. 20:30:01      20.8      1005.0      1023.0      45.2      -2.6   
   18.01.2021 г. 20:00:01      20.8      1004.8      1022.7      45.8      -3.5   
   18.01.2021 г. 19:30:01      20.7      1004.7      1022.6      45.6      -2.3   
   18.01.2021 г. 19:00:01      20.6      1004.5      1022.4      45.6      -1.6   
   18.01.2021 г. 18:30:01      20.4      1004.3      1022.2      46.1      1.2   
   18.01.2021 г. 18:00:01      20.2      1004.3      1022.2      45.3      0.0   
   18.01.2021 г. 17:30:01      19.9      1004.0      1021.9      45.1      2.3   
   18.01.2021 г. 17:00:01      19.6      1003.8      1021.7      45.2      2.5   
   18.01.2021 г. 16:30:01      19.3      1003.6      1021.5      44.5      4.4   
   18.01.2021 г. 16:00:01      19.2      1003.5      1021.4      45.6      3.7   
   18.01.2021 г. 15:30:01      19.0      1003.2      1021.1      45.1      2.5   
   18.01.2021 г. 15:00:00      19.0      1003.2      1021.1      45.9      1.3   
   18.01.2021 г. 14:30:01      19.0      1003.1      1021.0      46.5      4.4   

BaroSL graphic

TEMPE graphic